Time;durP1;ratioP1;P1;durP2;ratioP2;P2;SDS_P1;SDS_P2;PMS_P1;PMS_P2;Temp;Humidity;BMP_temperature;BMP_pressure;BME280_temperature;BME280_humidity;BME280_pressure;Samples;Min_cycle;Max_cycle;Signal;HPM_P1;HPM_P2
2023/05/12 00:01:51;;;;;;;;;3.33;2.00;;;;;15.73;100.00;101391.94;5027363;28;45415;-78
2023/05/12 00:04:17;;;;;;;;;1.00;1.00;;;;;15.74;100.00;101395.50;5037029;28;45551;-78
2023/05/12 00:06:42;;;;;;;;;4.00;1.00;;;;;15.74;100.00;101396.38;5023515;28;66497;-78
2023/05/12 00:09:08;;;;;;;;;1.33;1.00;;;;;15.70;100.00;101395.50;5024202;28;56775;-78
2023/05/12 00:11:36;;;;;;;;;2.67;2.67;;;;;15.69;100.00;101393.72;5026022;28;46216;-79
2023/05/12 00:14:01;;;;;;;;;4.00;3.00;;;;;15.66;100.00;101393.75;5026269;28;45319;-78
2023/05/12 00:16:26;;;;;;;;;5.33;1.00;;;;;15.65;100.00;101386.63;5030781;28;62129;-78
2023/05/12 00:18:52;;;;;;;;;3.00;1.00;;;;;15.63;100.00;101399.06;5029903;28;57506;-78
2023/05/12 00:21:17;;;;;;;;;5.00;2.00;;;;;15.59;100.00;101391.91;5021263;28;45534;-78
2023/05/12 00:23:42;;;;;;;;;4.33;3.00;;;;;15.59;100.00;101386.59;5017896;28;45560;-78
2023/05/12 00:26:08;;;;;;;;;1.33;1.33;;;;;15.57;100.00;101392.81;5018527;28;54087;-78
2023/05/12 00:28:34;;;;;;;;;3.00;2.00;;;;;15.53;100.00;101383.94;5031719;28;63221;-78
2023/05/12 00:31:02;;;;;;;;;5.00;3.33;;;;;15.54;100.00;101387.50;5027634;28;45406;-78
2023/05/12 00:33:28;;;;;;;;;1.33;1.33;;;;;15.50;100.00;101385.72;5027187;28;45652;-78
2023/05/12 00:35:53;;;;;;;;;2.00;2.00;;;;;15.46;100.00;101385.72;5029462;28;47370;-78
2023/05/12 00:38:18;;;;;;;;;1.33;1.33;;;;;15.44;100.00;101387.47;5028875;28;63062;-78
2023/05/12 00:40:44;;;;;;;;;5.67;1.00;;;;;15.42;100.00;101396.38;5026328;28;65138;-78
2023/05/12 00:43:10;;;;;;;;;3.67;2.00;;;;;15.39;100.00;101397.28;5025888;28;58171;-78
2023/05/12 00:45:35;;;;;;;;;3.00;1.33;;;;;15.38;100.00;101395.47;5033681;28;46307;-78
2023/05/12 00:48:01;;;;;;;;;3.33;1.67;;;;;15.40;100.00;101390.16;5030094;28;46305;-78
2023/05/12 00:50:27;;;;;;;;;1.00;1.00;;;;;15.44;100.00;101394.56;5033362;28;45351;-78
2023/05/12 00:52:52;;;;;;;;;1.67;1.67;;;;;15.47;100.00;101389.28;5020933;28;53879;-79
2023/05/12 00:55:18;;;;;;;;;1.00;1.00;;;;;15.53;100.00;101389.25;5031724;28;68247;-78
2023/05/12 00:57:44;;;;;;;;;4.67;2.00;;;;;15.58;100.00;101386.59;5024203;28;45240;-78
2023/05/12 01:00:10;;;;;;;;;3.00;2.00;;;;;15.58;100.00;101384.81;5027315;28;45473;-78
2023/05/12 01:02:36;;;;;;;;;3.00;1.00;;;;;15.60;100.00;101387.47;5034524;28;45400;-78
2023/05/12 01:05:01;;;;;;;;;2.00;2.00;;;;;15.61;100.00;101390.16;5025860;28;47335;-79
2023/05/12 01:07:31;;;;;;;;;3.00;1.33;;;;;15.63;100.00;101383.09;5033936;28;45420;-78
2023/05/12 01:09:57;;;;;;;;;4.67;2.00;;;;;15.63;100.00;101385.75;5033529;28;45284;-78
2023/05/12 01:12:22;;;;;;;;;1.67;1.67;;;;;15.66;100.00;101384.88;5022475;28;45521;-78
2023/05/12 01:14:49;;;;;;;;;3.67;2.00;;;;;15.68;100.00;101388.41;5028084;28;46373;-79
2023/05/12 01:17:19;;;;;;;;;1.00;1.00;;;;;15.68;100.00;101391.06;5032521;28;45428;-79
2023/05/12 01:19:49;;;;;;;;;3.00;1.00;;;;;15.70;100.00;101387.50;5028391;28;45275;-78
2023/05/12 01:22:16;;;;;;;;;1.00;1.00;;;;;15.70;100.00;101392.81;5035995;28;45557;-77
2023/05/12 01:24:46;;;;;;;;;4.00;2.00;;;;;15.69;100.00;101393.72;5037033;28;46770;-78
2023/05/12 01:27:12;;;;;;;;;1.00;1.00;;;;;15.67;100.00;101389.31;5030525;28;45898;-77
2023/05/12 01:29:37;;;;;;;;;2.67;1.33;;;;;15.67;100.00;101392.84;5046443;28;45570;-79
2023/05/12 01:32:03;;;;;;;;;4.33;3.00;;;;;15.65;100.00;101385.72;5026289;28;45613;-78
2023/05/12 01:34:30;;;;;;;;;5.00;2.00;;;;;15.64;100.00;101392.84;5028090;28;53301;-79
2023/05/12 01:36:56;;;;;;;;;3.00;2.00;;;;;15.64;100.00;101386.63;5028581;28;45454;-79
2023/05/12 01:39:21;;;;;;;;;2.00;2.00;;;;;15.67;100.00;101392.84;5034113;28;45509;-79
2023/05/12 01:41:46;;;;;;;;;5.00;2.00;;;;;15.69;100.00;101393.72;5026456;28;47504;-78
2023/05/12 01:44:12;;;;;;;;;6.67;3.33;;;;;15.68;100.00;101389.28;5021364;28;53795;-79
2023/05/12 01:46:37;;;;;;;;;1.67;1.33;;;;;15.68;100.00;101386.63;5024076;28;45663;-79
2023/05/12 01:49:03;;;;;;;;;2.00;2.00;;;;;15.66;100.00;101391.06;5038322;28;45335;-79
2023/05/12 01:51:28;;;;;;;;;3.00;3.00;;;;;15.67;100.00;101392.84;5036755;28;55354;-79
2023/05/12 01:53:53;;;;;;;;;5.67;2.67;;;;;15.66;100.00;101376.88;5031170;28;62582;-79
2023/05/12 01:56:20;;;;;;;;;2.00;2.00;;;;;15.67;100.00;101381.31;5037396;28;61506;-78
2023/05/12 01:58:45;;;;;;;;;1.33;1.33;;;;;15.67;100.00;101384.88;5035624;28;45402;-78
2023/05/12 02:01:11;;;;;;;;;2.00;2.00;;;;;15.65;100.00;101383.97;5028102;28;51259;-79
2023/05/12 02:03:36;;;;;;;;;4.33;2.67;;;;;15.65;100.00;101380.41;5032412;28;46947;-79
2023/05/12 02:06:02;;;;;;;;;2.00;2.00;;;;;15.64;100.00;101379.53;5026102;28;46225;-78
2023/05/12 02:08:27;;;;;;;;;2.00;2.00;;;;;15.62;100.00;101380.41;5049735;28;45500;-78
2023/05/12 02:11:06;;;;;;;;;3.00;2.00;;;;;15.60;100.00;101388.38;5034229;28;47156;-78
2023/05/12 02:13:31;;;;;;;;;1.67;1.67;;;;;15.56;100.00;101383.94;5031234;28;46874;-78
2023/05/12 02:15:56;;;;;;;;;3.33;2.67;;;;;15.55;100.00;101384.81;5026406;28;45283;-78
2023/05/12 02:18:22;;;;;;;;;4.00;1.00;;;;;15.52;100.00;101389.28;5053197;28;45324;-78
2023/05/12 02:20:47;;;;;;;;;1.00;1.00;;;;;15.51;100.00;101387.50;5035395;28;45439;-77
2023/05/12 02:23:12;;;;;;;;;2.00;0.00;;;;;15.51;100.00;101392.81;5031689;28;64745;-78
2023/05/12 02:25:38;;;;;;;;;3.33;2.33;;;;;15.48;100.00;101388.38;5025260;28;64015;-79
2023/05/12 02:28:03;;;;;;;;;2.00;2.00;;;;;15.43;100.00;101380.38;5019742;28;46708;-78
2023/05/12 02:30:29;;;;;;;;;1.00;1.00;;;;;15.40;100.00;101380.41;5026186;28;46951;-78
2023/05/12 02:32:54;;;;;;;;;2.00;2.00;;;;;15.38;100.00;101375.97;5024135;28;59984;-79
2023/05/12 02:35:20;;;;;;;;;1.00;1.00;;;;;15.38;100.00;101378.63;5001948;28;68792;-78
2023/05/12 02:37:45;;;;;;;;;1.00;1.00;;;;;15.34;100.00;101372.44;5032310;28;45498;-77
2023/05/12 02:40:11;;;;;;;;;2.00;1.67;;;;;15.34;100.00;101382.16;5035642;28;45461;-78
2023/05/12 02:42:37;;;;;;;;;1.00;1.00;;;;;15.31;100.00;101380.41;5034995;28;46316;-78
2023/05/12 02:45:03;;;;;;;;;2.33;2.00;;;;;15.27;100.00;101377.72;5029899;28;45321;-78
2023/05/12 02:47:31;;;;;;;;;1.67;1.00;;;;;15.26;100.00;101381.28;5018845;28;45490;-78
2023/05/12 02:49:57;;;;;;;;;6.00;1.33;;;;;15.22;100.00;101375.06;5031619;28;45541;-79
2023/05/12 02:52:22;;;;;;;;;6.67;2.00;;;;;15.22;100.00;101384.81;5030666;28;47143;-78
2023/05/12 02:54:48;;;;;;;;;4.67;2.00;;;;;15.18;100.00;101384.84;5036221;28;46554;-78
2023/05/12 02:57:13;;;;;;;;;2.67;2.67;;;;;15.15;100.00;101378.63;5027215;28;47577;-78
2023/05/12 02:59:38;;;;;;;;;1.67;1.67;;;;;15.13;100.00;101386.59;5034173;28;48418;-79
2023/05/12 03:02:04;;;;;;;;;6.00;2.00;;;;;15.10;100.00;101386.59;5030978;28;63921;-78
2023/05/12 03:04:29;;;;;;;;;1.00;1.00;;;;;15.11;100.00;101380.38;5033923;28;45490;-78
2023/05/12 03:06:56;;;;;;;;;3.67;2.00;;;;;15.10;100.00;101377.72;5035562;28;45299;-78
2023/05/12 03:09:21;;;;;;;;;3.00;1.00;;;;;15.06;100.00;101376.81;5031030;28;45347;-79
2023/05/12 03:11:46;;;;;;;;;3.33;1.00;;;;;15.05;100.00;101374.16;5032776;28;62882;-79
2023/05/12 03:14:12;;;;;;;;;1.00;1.00;;;;;15.03;100.00;101374.19;5028427;28;51833;-78
2023/05/12 03:16:37;;;;;;;;;3.00;1.33;;;;;14.99;100.00;101377.72;5027007;28;57473;-79
2023/05/12 03:19:03;;;;;;;;;1.00;1.00;;;;;14.98;100.00;101377.72;5034814;28;54460;-79
2023/05/12 03:21:29;;;;;;;;;2.67;1.00;;;;;14.94;100.00;101379.47;5035175;28;47282;-78
2023/05/12 03:23:56;;;;;;;;;1.00;1.00;;;;;14.90;100.00;101377.69;5026528;28;45298;-78
2023/05/12 03:26:21;;;;;;;;;1.00;1.00;;;;;14.87;100.00;101381.25;5029575;28;45463;-79
2023/05/12 03:28:47;;;;;;;;;3.67;1.00;;;;;14.85;100.00;101382.97;5034011;28;45367;-79
2023/05/12 03:31:12;;;;;;;;;1.00;1.00;;;;;14.82;100.00;101371.47;5034819;28;53810;-79
2023/05/12 03:33:38;;;;;;;;;2.00;1.00;;;;;14.79;100.00;101380.31;5035273;28;45406;-78
2023/05/12 03:36:03;;;;;;;;;1.00;1.00;;;;;14.79;100.00;101382.09;5030401;28;64621;-79
2023/05/12 03:38:29;;;;;;;;;2.00;1.00;;;;;14.77;100.00;101387.41;5024061;28;45476;-78
2023/05/12 03:41:07;;;;;;;;;1.00;1.00;;;;;14.73;100.00;101382.09;5030875;28;47617;-79
2023/05/12 03:43:33;;;;;;;;;2.33;2.00;;;;;14.68;100.00;101384.72;5024404;28;45452;-78
2023/05/12 03:45:58;;;;;;;;;2.00;2.00;;;;;14.66;100.00;101394.47;5025872;28;45378;-78
2023/05/12 03:48:24;;;;;;;;;4.67;2.00;;;;;14.60;100.00;101384.72;5036587;28;45351;-78
2023/05/12 03:50:49;;;;;;;;;2.00;2.00;;;;;14.58;100.00;101385.56;5030687;28;47355;-79
2023/05/12 03:53:14;;;;;;;;;3.67;2.00;;;;;14.55;100.00;101388.25;5031472;28;53313;-79
2023/05/12 03:55:40;;;;;;;;;1.00;1.00;;;;;14.49;100.00;101390.84;5029232;28;49911;-78
2023/05/12 03:58:06;;;;;;;;;1.67;1.67;;;;;14.45;100.00;101384.63;5019181;28;45565;-78
2023/05/12 04:00:31;;;;;;;;;0.00;0.00;;;;;14.40;100.00;101387.25;5034800;28;46624;-78
2023/05/12 04:02:57;;;;;;;;;1.00;1.00;;;;;14.38;100.00;101390.75;5026972;28;45347;-78
2023/05/12 04:05:22;;;;;;;;;4.00;1.00;;;;;14.36;100.00;101393.44;5031171;28;45481;-78
2023/05/12 04:07:48;;;;;;;;;2.00;2.00;;;;;14.34;100.00;101394.31;5026836;28;54361;-78
2023/05/12 04:10:13;;;;;;;;;3.67;2.67;;;;;14.33;100.00;101392.53;5022913;28;63538;-78
2023/05/12 04:12:38;;;;;;;;;2.33;2.00;;;;;14.31;100.00;101388.97;5034298;28;45451;-78
2023/05/12 04:15:04;;;;;;;;;2.00;2.00;;;;;14.31;100.00;101394.28;5025168;28;45429;-78
2023/05/12 04:17:30;;;;;;;;;5.33;3.00;;;;;14.29;100.00;101390.75;5029829;28;45510;-78
2023/05/12 04:19:55;;;;;;;;;2.33;2.00;;;;;14.30;100.00;101389.88;5031860;28;54406;-78
2023/05/12 04:22:20;;;;;;;;;3.00;3.00;;;;;14.28;100.00;101389.88;5022854;28;59937;-78
2023/05/12 04:24:46;;;;;;;;;2.67;2.67;;;;;14.27;100.00;101392.50;5026096;28;45672;-78
2023/05/12 04:27:11;;;;;;;;;4.00;2.00;;;;;14.27;100.00;101381.88;5020050;28;45545;-78
2023/05/12 04:29:36;;;;;;;;;7.33;4.00;;;;;14.26;100.00;101396.03;5023608;28;53526;-78
2023/05/12 04:32:02;;;;;;;;;2.33;2.33;;;;;14.25;100.00;101397.81;5022675;28;45450;-78
2023/05/12 04:34:28;;;;;;;;;1.67;1.67;;;;;14.24;100.00;101395.16;5031980;28;45572;-78
2023/05/12 04:36:53;;;;;;;;;2.00;1.00;;;;;14.23;100.00;101399.56;5021824;28;45511;-78
2023/05/12 04:39:18;;;;;;;;;2.00;2.00;;;;;14.21;100.00;101396.00;5013816;28;48641;-78
2023/05/12 04:41:44;;;;;;;;;2.33;2.33;;;;;14.17;100.00;101396.91;5025815;28;46995;-78
2023/05/12 04:44:09;;;;;;;;;2.67;2.33;;;;;14.15;100.00;101395.97;5028333;28;45758;-78
2023/05/12 04:46:35;;;;;;;;;5.67;3.00;;;;;14.15;100.00;101396.84;5027130;28;53821;-79
2023/05/12 04:49:00;;;;;;;;;2.67;2.00;;;;;14.12;100.00;101399.53;5023683;28;45794;-78
2023/05/12 04:51:26;;;;;;;;;4.00;2.00;;;;;14.10;100.00;101398.59;5033316;28;45467;-77
2023/05/12 04:53:51;;;;;;;;;3.33;2.00;;;;;14.10;100.00;101403.03;5025514;28;45490;-75
2023/05/12 04:56:16;;;;;;;;;2.67;1.00;;;;;14.12;100.00;101410.16;5023709;28;45521;-76
2023/05/12 04:58:42;;;;;;;;;3.00;3.00;;;;;14.14;100.00;101407.50;5023108;28;47417;-74
2023/05/12 05:01:07;;;;;;;;;2.00;2.00;;;;;14.15;100.00;101410.13;5024438;28;45635;-75
2023/05/12 05:03:33;;;;;;;;;6.00;3.00;;;;;14.14;100.00;101403.06;5029147;28;46086;-77
2023/05/12 05:05:58;;;;;;;;;7.33;2.00;;;;;14.19;100.00;101415.47;5028806;28;54557;-75
2023/05/12 05:08:23;;;;;;;;;2.33;1.00;;;;;14.16;100.00;101414.56;5023193;28;48018;-75
2023/05/12 05:10:49;;;;;;;;;1.67;1.67;;;;;14.16;100.00;101417.22;5024061;28;58959;-77
2023/05/12 05:13:15;;;;;;;;;2.67;2.00;;;;;14.18;100.00;101419.91;5025889;28;45814;-78
2023/05/12 05:15:48;;;;;;;;;5.33;2.33;;;;;14.17;100.00;101426.09;5028954;28;45556;-81
2023/05/12 05:18:14;;;;;;;;;2.67;2.67;;;;;14.16;100.00;101425.19;5027305;28;46535;-78
2023/05/12 05:20:39;;;;;;;;;4.67;2.00;;;;;14.15;100.00;101422.53;5023817;28;70085;-79
2023/05/12 05:23:05;;;;;;;;;5.00;3.00;;;;;14.16;100.00;101433.16;5016529;28;59528;-78
2023/05/12 05:25:31;;;;;;;;;3.33;2.00;;;;;14.13;100.00;101427.84;5019438;28;45423;-78
2023/05/12 05:27:57;;;;;;;;;2.00;2.00;;;;;14.14;100.00;101426.06;5025849;28;46502;-79
2023/05/12 05:30:22;;;;;;;;;3.67;2.00;;;;;14.14;100.00;101428.72;5027312;28;46694;-80
2023/05/12 05:32:48;;;;;;;;;2.67;2.67;;;;;14.13;100.00;101435.81;5029356;28;58858;-83
2023/05/12 05:35:13;;;;;;;;;3.00;2.00;;;;;14.12;100.00;101431.38;5025185;28;50568;-79
2023/05/12 05:37:38;;;;;;;;;4.00;2.00;;;;;14.15;100.00;101427.84;5023523;28;46889;-80
2023/05/12 05:40:04;;;;;;;;;2.00;2.00;;;;;14.15;100.00;101434.03;5030226;28;65698;-79
2023/05/12 05:42:30;;;;;;;;;3.67;1.00;;;;;14.14;100.00;101426.97;5032431;28;45694;-80
2023/05/12 05:44:55;;;;;;;;;1.00;1.00;;;;;14.14;100.00;101432.28;5035288;28;61257;-83
2023/05/12 05:47:21;;;;;;;;;2.00;2.00;;;;;14.15;100.00;101435.81;5028311;28;46293;-78
2023/05/12 05:49:46;;;;;;;;;2.67;2.00;;;;;14.15;100.00;101433.16;5025335;28;59013;-81
2023/05/12 05:52:11;;;;;;;;;2.00;2.00;;;;;14.15;100.00;101438.47;5036500;28;45429;-80
2023/05/12 05:54:37;;;;;;;;;2.00;2.00;;;;;14.12;100.00;101442.00;5033399;28;60127;-82
2023/05/12 05:57:02;;;;;;;;;2.67;2.00;;;;;14.10;100.00;101437.56;5022409;28;54371;-81
2023/05/12 05:59:28;;;;;;;;;4.67;3.00;;;;;14.10;100.00;101438.44;5024055;28;45458;-80
2023/05/12 06:01:53;;;;;;;;;2.00;2.00;;;;;14.07;100.00;101435.78;5041981;28;45541;-78
2023/05/12 06:04:18;;;;;;;;;3.33;2.00;;;;;14.07;100.00;101441.09;5030728;28;63047;-81
2023/05/12 06:06:43;;;;;;;;;2.00;2.00;;;;;14.04;100.00;101433.09;5022938;28;71707;-77
2023/05/12 06:09:11;;;;;;;;;3.67;1.67;;;;;14.05;100.00;101432.22;5021239;28;67476;-78
2023/05/12 06:11:37;;;;;;;;;2.67;2.67;;;;;14.07;100.00;101433.13;5023457;28;45495;-81
2023/05/12 06:14:02;;;;;;;;;1.00;1.00;;;;;14.06;100.00;101426.03;5027641;28;45497;-83
2023/05/12 06:16:28;;;;;;;;;1.00;1.00;;;;;14.09;100.00;101434.00;5025117;28;45519;-79
2023/05/12 06:18:53;;;;;;;;;2.00;2.00;;;;;14.12;100.00;101436.69;5023637;28;45528;-80
2023/05/12 06:21:18;;;;;;;;;4.00;4.00;;;;;14.12;100.00;101431.38;5028568;28;45508;-79
2023/05/12 06:23:44;;;;;;;;;2.33;2.33;;;;;14.16;100.00;101434.94;5030281;28;61279;-81
2023/05/12 06:26:10;;;;;;;;;2.00;2.00;;;;;14.16;100.00;101429.63;5023720;28;45604;-80
2023/05/12 06:28:36;;;;;;;;;2.33;1.00;;;;;14.19;100.00;101436.72;5025054;28;45284;-78
2023/05/12 06:31:01;;;;;;;;;1.00;1.00;;;;;14.23;100.00;101442.06;5026865;28;46442;-81
2023/05/12 06:33:26;;;;;;;;;2.00;2.00;;;;;14.25;100.00;101434.09;5032097;28;45281;-80
2023/05/12 06:35:52;;;;;;;;;3.33;2.00;;;;;14.27;100.00;101435.00;5032724;28;66063;-80
2023/05/12 06:38:17;;;;;;;;;2.00;2.00;;;;;14.32;100.00;101444.75;5030052;28;45473;-80
2023/05/12 06:40:42;;;;;;;;;3.00;2.67;;;;;14.34;100.00;101439.47;5025830;28;45303;-82
2023/05/12 06:43:08;;;;;;;;;2.00;2.00;;;;;14.38;100.00;101446.56;5020470;28;60937;-80
2023/05/12 06:45:33;;;;;;;;;1.33;1.33;;;;;14.38;100.00;101444.81;5032140;28;46274;-81
2023/05/12 06:47:58;;;;;;;;;3.00;1.00;;;;;14.38;100.00;101436.84;5026709;28;60643;-81
2023/05/12 06:50:24;;;;;;;;;2.00;2.00;;;;;14.42;100.00;101451.91;5022700;28;53414;-82
2023/05/12 06:52:49;;;;;;;;;1.67;1.67;;;;;14.45;100.00;101439.53;5023027;28;60290;-79
2023/05/12 06:55:18;;;;;;;;;2.00;2.00;;;;;14.48;100.00;101448.41;5019803;28;46158;-81
2023/05/12 06:57:43;;;;;;;;;1.00;1.00;;;;;14.50;100.00;101440.47;5028037;28;46251;-82
2023/05/12 07:02:34;;;;;;;;;2.33;2.33;;;;;14.53;100.00;101440.47;5135041;22;45751;-77
2023/05/12 07:05:00;;;;;;;;;2.00;2.00;;;;;14.55;100.00;101438.72;5026382;28;45785;-78
2023/05/12 07:07:26;;;;;;;;;2.33;2.00;;;;;14.60;100.00;101445.84;5038544;28;45831;-80
2023/05/12 07:09:51;;;;;;;;;2.00;2.00;;;;;14.68;100.00;101446.75;5030775;28;50669;-81
2023/05/12 07:12:16;;;;;;;;;3.00;2.67;;;;;14.76;100.00;101445.91;5033020;28;46079;-79
2023/05/12 07:14:42;;;;;;;;;4.00;2.00;;;;;14.88;100.00;101440.63;4999115;28;62549;-81
2023/05/12 07:17:07;;;;;;;;;3.33;2.00;;;;;15.00;100.00;101448.63;5030337;28;45473;-80
2023/05/12 07:19:34;;;;;;;;;3.00;1.33;;;;;15.12;100.00;101438.00;5008141;28;45571;-79
2023/05/12 07:21:59;;;;;;;;;2.00;2.00;;;;;15.22;100.00;101433.59;5029640;28;45285;-80
2023/05/12 07:24:26;;;;;;;;;3.67;3.00;;;;;15.30;100.00;101434.50;5029732;28;46564;-79
2023/05/12 07:26:51;;;;;;;;;2.00;2.00;;;;;15.39;100.00;101433.59;5027485;28;45611;-81
2023/05/12 07:29:17;;;;;;;;;5.33;4.00;;;;;15.43;100.00;101430.06;5033587;28;45887;-81
2023/05/12 07:31:42;;;;;;;;;3.33;3.00;;;;;15.45;100.00;101430.97;5034356;28;45434;-77
2023/05/12 07:34:08;;;;;;;;;2.00;2.00;;;;;15.51;100.00;101432.75;5034653;28;62175;-81
2023/05/12 07:36:33;;;;;;;;;4.67;3.33;;;;;15.54;100.00;101433.63;5030221;28;45537;-81
2023/05/12 07:38:59;;;;;;;;;2.67;2.00;;;;;15.59;100.00;101423.84;5036486;28;45694;-80
2023/05/12 07:41:25;;;;;;;;;4.00;3.00;;;;;15.64;100.00;101427.44;5030674;28;45337;-81
2023/05/12 07:43:50;;;;;;;;;3.67;2.00;;;;;15.70;100.00;101423.88;5032494;28;46660;-81
2023/05/12 07:46:15;;;;;;;;;4.00;3.33;;;;;15.74;100.00;101427.44;5034385;28;59245;-81
2023/05/12 07:48:41;;;;;;;;;7.67;3.00;;;;;15.83;100.00;101427.44;5032798;28;45341;-80
2023/05/12 07:51:07;;;;;;;;;5.00;3.00;;;;;15.86;100.00;101419.44;5025904;28;45472;-82
2023/05/12 07:53:32;;;;;;;;;5.67;4.00;;;;;15.92;100.00;101422.97;5033645;28;46304;-86
2023/05/12 07:55:57;;;;;;;;;3.33;3.33;;;;;16.02;100.00;101422.97;5032702;28;45423;-83
2023/05/12 07:58:23;;;;;;;;;4.00;2.00;;;;;16.11;100.00;101421.19;5026462;28;57634;-82
2023/05/12 08:00:48;;;;;;;;;4.33;3.00;;;;;16.18;100.00;101420.25;5034469;28;58008;-80
2023/05/12 08:03:15;;;;;;;;;5.00;4.33;;;;;16.27;100.00;101418.47;5011824;28;66865;-82
2023/05/12 08:05:40;;;;;;;;;8.33;4.00;;;;;16.33;100.00;101432.66;5014967;28;45511;-80
2023/05/12 08:08:05;;;;;;;;;5.00;4.00;;;;;16.35;100.00;101428.22;5030047;28;45955;-81
2023/05/12 08:10:31;;;;;;;;;3.33;3.33;;;;;16.37;100.00;101428.22;5017007;28;45344;-84
2023/05/12 08:12:57;;;;;;;;;4.00;3.00;;;;;16.40;100.00;101433.50;5013489;28;46405;-80
2023/05/12 08:15:22;;;;;;;;;2.00;2.00;;;;;16.48;100.00;101429.06;5016748;28;45475;-80
2023/05/12 08:17:47;;;;;;;;;3.00;3.00;;;;;16.54;100.00;101428.16;5030378;28;45379;-81
2023/05/12 08:20:13;;;;;;;;;5.00;5.00;;;;;16.60;100.00;101428.13;5032809;28;59335;-80
2023/05/12 08:22:39;;;;;;;;;3.33;3.00;;;;;16.66;100.00;101428.97;5031797;28;46199;-80
2023/05/12 08:25:05;;;;;;;;;4.00;3.00;;;;;16.75;100.00;101431.63;5012453;28;45467;-81
2023/05/12 08:27:30;;;;;;;;;3.67;3.67;;;;;16.78;100.00;101428.09;5035151;28;45275;-81
2023/05/12 08:29:56;;;;;;;;;3.33;2.33;;;;;16.80;100.00;101428.06;5014223;28;45364;-83
2023/05/12 08:32:21;;;;;;;;;5.00;5.00;;;;;16.86;100.00;101438.69;5014939;28;67627;-82
2023/05/12 08:34:46;;;;;;;;;4.00;4.00;;;;;16.89;100.00;101422.69;5026903;28;45503;-77
2023/05/12 08:37:12;;;;;;;;;4.33;4.33;;;;;16.95;100.00;101436.00;5023670;28;64216;-82
2023/05/12 08:39:37;;;;;;;;;4.33;4.00;;;;;16.96;100.00;101435.97;5031893;28;51703;-80
2023/05/12 08:42:24;;;;;;;;;4.00;4.00;;;;;16.99;100.00;101443.06;5030412;28;66109;-77
2023/05/12 08:44:50;;;;;;;;;3.67;3.67;;;;;16.92;100.00;101444.88;5022050;28;45282;-79
2023/05/12 08:47:18;;;;;;;;;6.67;6.67;;;;;16.83;100.00;101441.38;4993546;28;45394;-81
2023/05/12 08:49:44;;;;;;;;;4.00;4.00;;;;;16.79;100.00;101442.31;5006670;28;46243;-78
2023/05/12 08:52:11;;;;;;;;;7.00;5.33;;;;;16.72;100.00;101447.66;5022735;28;47486;-78
2023/05/12 08:54:36;;;;;;;;;5.00;3.33;;;;;16.64;100.00;101446.78;5026432;28;47167;-79
2023/05/12 08:57:03;;;;;;;;;5.00;5.00;;;;;16.58;100.00;101461.91;5018008;28;49204;-81
2023/05/12 08:59:28;;;;;;;;;6.00;6.00;;;;;16.51;100.00;101455.69;5032018;28;45363;-81
2023/05/12 09:01:55;;;;;;;;;6.00;6.00;;;;;16.48;100.00;101461.06;5006754;28;69597;-78
2023/05/12 09:04:20;;;;;;;;;10.33;7.33;;;;;16.48;100.00;101453.06;4998194;28;46501;-78
2023/05/12 09:06:46;;;;;;;;;7.00;7.00;;;;;16.41;100.00;101451.31;5026551;28;52028;-77
2023/05/12 09:09:13;;;;;;;;;9.00;8.00;;;;;16.38;100.00;101460.19;5029853;28;60423;-79
2023/05/12 09:11:39;;;;;;;;;9.00;7.67;;;;;16.35;100.00;101456.63;5008743;28;46231;-78
2023/05/12 09:14:09;;;;;;;;;9.00;9.00;;;;;16.37;100.00;101453.09;5015135;28;45563;-78
2023/05/12 09:16:38;;;;;;;;;10.00;9.00;;;;;16.41;100.00;101456.63;5020366;28;45568;-78
2023/05/12 09:19:05;;;;;;;;;11.33;11.33;;;;;16.41;100.00;101445.97;5021886;28;45614;-76
2023/05/12 09:21:30;;;;;;;;;10.67;10.00;;;;;16.40;100.00;101452.19;5030990;28;45907;-81
2023/05/12 09:24:05;;;;;;;;;7.67;6.67;;;;;16.36;100.00;101461.09;5030640;28;45452;-77
2023/05/12 09:26:31;;;;;;;;;15.67;10.67;;;;;16.31;100.00;101460.22;5013166;28;45540;-77
2023/05/12 09:29:07;;;;;;;;;11.67;11.00;;;;;16.28;100.00;101460.22;5012089;28;45538;-77
2023/05/12 09:31:33;;;;;;;;;18.00;14.33;;;;;16.26;100.00;101462.00;5026038;28;46549;-83
2023/05/12 09:34:00;;;;;;;;;11.67;10.67;;;;;16.26;100.00;101467.34;5006211;28;68458;-80
2023/05/12 09:36:26;;;;;;;;;12.67;11.33;;;;;16.22;100.00;101456.66;5015178;28;45491;-80
2023/05/12 09:38:59;;;;;;;;;17.00;12.67;;;;;16.28;100.00;101460.22;5036139;28;45648;-81
2023/05/12 09:41:24;;;;;;;;;14.00;11.00;;;;;16.35;100.00;101454.88;5037635;28;46495;-83
2023/05/12 09:43:52;;;;;;;;;15.33;11.00;;;;;16.48;100.00;101461.06;5008486;28;69753;-84
2023/05/12 09:46:17;;;;;;;;;15.00;11.33;;;;;16.61;100.00;101456.53;5018502;28;45448;-82
2023/05/12 09:48:46;;;;;;;;;15.33;11.33;;;;;16.74;100.00;101453.88;5015592;28;45313;-79
2023/05/12 09:51:11;;;;;;;;;11.00;9.00;;;;;16.91;100.00;101459.13;5032082;28;47036;-80
2023/05/12 09:53:43;;;;;;;;;12.00;10.00;;;;;17.08;100.00;101459.03;5012174;28;45491;-80
2023/05/12 09:56:09;;;;;;;;;13.33;9.00;;;;;17.17;100.00;101466.97;5018752;28;46602;-79
2023/05/12 09:58:35;;;;;;;;;9.33;8.00;;;;;17.22;100.00;101446.50;5017867;28;45476;-82
2023/05/12 10:01:01;;;;;;;;;11.00;8.00;;;;;17.21;100.00;101449.19;5007902;28;67262;-80
2023/05/12 10:03:29;;;;;;;;;10.67;7.67;;;;;17.19;100.00;101451.84;5019032;28;45339;-83
2023/05/12 10:06:03;;;;;;;;;4.00;4.00;;;;;17.18;100.00;101459.88;5035955;28;45450;-79
2023/05/12 10:08:44;;;;;;;;;4.33;4.33;;;;;17.19;100.00;101450.97;5018833;28;45318;-82
2023/05/12 10:11:09;;;;;;;;;7.00;6.00;;;;;17.22;100.00;101456.28;5031647;28;46703;-78
2023/05/12 10:13:35;;;;;;;;;6.67;4.33;;;;;17.21;100.00;101454.53;5017743;28;45533;-77
2023/05/12 10:16:01;;;;;;;;;5.00;5.00;;;;;17.24;100.00;101454.47;5018518;28;57470;-78
2023/05/12 10:18:27;;;;;;;;;4.00;4.00;;;;;17.25;100.00;101451.78;5029133;28;60519;-77
2023/05/12 10:20:53;;;;;;;;;7.00;7.00;;;;;17.35;100.00;101441.94;5033926;28;58865;-83
2023/05/12 10:23:19;;;;;;;;;5.33;4.00;;;;;17.42;100.00;101441.03;5017867;28;47815;-81
2023/05/12 10:25:44;;;;;;;;;8.00;7.00;;;;;17.47;100.00;101444.56;5016899;28;46132;-79
2023/05/12 10:28:10;;;;;;;;;9.00;6.33;;;;;17.48;100.00;101440.97;5016855;28;45511;-75
2023/05/12 10:30:40;;;;;;;;;5.67;4.67;;;;;17.45;100.00;101438.31;5028839;28;45613;-76
2023/05/12 10:33:08;;;;;;;;;5.00;4.00;;;;;17.48;100.00;101440.09;5037797;28;45408;-77
2023/05/12 10:35:35;;;;;;;;;11.00;11.00;;;;;17.54;100.00;101443.59;5007870;28;45449;-83
2023/05/12 10:38:08;;;;;;;;;4.33;3.33;;;;;17.64;100.00;101438.19;5025733;28;45507;-76
2023/05/12 10:40:34;;;;;;;;;5.00;3.67;;;;;17.79;100.00;101438.09;5025767;28;46852;-75
2023/05/12 10:43:02;;;;;;;;;4.33;4.33;;;;;17.90;100.00;101446.00;5009854;28;70010;-76
2023/05/12 10:45:28;;;;;;;;;9.00;7.67;;;;;18.02;100.00;101443.22;5003963;28;45373;-76
2023/05/12 10:48:06;;;;;;;;;3.00;3.00;;;;;18.19;100.00;101443.91;5021108;28;45337;-80
2023/05/12 10:50:31;;;;;;;;;3.67;3.00;;;;;18.32;100.00;101442.88;5012137;28;48724;-79
2023/05/12 10:52:57;;;;;;;;;3.67;3.33;;;;;18.42;100.00;101424.94;5009132;28;46622;-78
2023/05/12 10:55:40;;;;;;;;;4.67;3.00;;;;;18.51;100.00;101430.16;5006180;28;45499;-78
2023/05/12 10:58:10;;;;;;;;;4.00;4.00;;;;;18.53;100.00;101427.47;5016717;28;45460;-78
2023/05/12 11:00:48;;;;;;;;;7.00;4.33;;;;;18.48;100.00;101426.63;5013302;28;46026;-79
2023/05/12 11:03:18;;;;;;;;;3.33;3.33;;;;;18.39;100.00;101432.13;5032066;28;45431;-77
2023/05/12 11:05:45;;;;;;;;;4.67;3.00;;;;;18.28;100.00;101429.56;5025622;28;45371;-78
2023/05/12 11:08:10;;;;;;;;;4.00;4.00;;;;;18.21;100.00;101428.72;5021796;28;45635;-78
2023/05/12 11:10:36;;;;;;;;;3.00;3.00;;;;;18.17;100.00;101424.34;5030420;28;46365;-76
2023/05/12 11:13:03;;;;;;;;;4.00;4.00;;;;;18.17;100.00;101424.34;5012604;28;66160;-77
2023/05/12 11:15:29;;;;;;;;;7.33;4.00;;;;;18.15;100.00;101414.56;5027647;28;45408;-78